GMMC/CAS METAR and TAF weather

Enter ICAO airport designator
Station Type Date Time Source
GMMC METAR 2021/03/02 17:00 UTC NOAA

GMMC 021700Z 04010KT CAVOK 18/12 Q1021


Station Type Date Time Source
GMMC Decoded METAR 2021/03/02 17:00 UTC NOAA

Casablanca, Morocco (GMMC) 33-34N 007-40W 62M
Mar 02, 2021 - 12:00 PM EST / 2021.03.02 1700 UTC
Wind: from the NE (040 degrees) at 12 MPH (10 KT):0
Visibility: greater than 7 mile(s):0
Temperature: 64 F (18 C)
Dew Point: 53 F (12 C)
Relative Humidity: 67%
Pressure (altimeter): 30.15 in. Hg (1021 hPa)
ob: GMMC 021700Z 04010KT CAVOK 18/12 Q1021
cycle: 17

Station Type Date Time Source
GMMC TAF 2016/05/22 17:00 UTC NOAA

FTMC31 GMMC 221700 RRA TAF LPPT 221700Z 2218/2324 34013KT CAVOK
BECMG 2221/2224 34007KT
BECMG 2310/2312 VRB03KT

Example: see airport list